createdAt,value
2022-10-18T00:06:51.078Z,22.31
2022-10-18T00:14:27.067Z,22.23
2022-10-18T00:22:06.757Z,22.19
2022-10-18T00:29:50.907Z,22.2
2022-10-18T00:37:34.130Z,22.19
2022-10-18T00:45:23.926Z,22.2
2022-10-18T00:53:21.515Z,22.16
2022-10-18T01:01:02.184Z,22.17
2022-10-18T01:08:54.188Z,22.17
2022-10-18T01:17:04.136Z,22.14
2022-10-18T01:25:15.822Z,22.15
2022-10-18T01:33:33.721Z,22.16
2022-10-18T01:41:38.893Z,22.15
2022-10-18T01:49:27.987Z,22.17
2022-10-18T01:57:23.119Z,22.18
2022-10-18T02:05:19.954Z,22.13
2022-10-18T02:13:31.392Z,22.2
2022-10-18T02:21:40.240Z,22.17
2022-10-18T02:29:23.155Z,22.2
2022-10-18T02:37:41.588Z,22.22
2022-10-18T02:45:38.876Z,22.26
2022-10-18T02:53:09.560Z,22.43
2022-10-18T03:00:41.734Z,22.36
2022-10-18T03:08:13.958Z,22.28
2022-10-18T03:15:58.588Z,22.16
2022-10-18T03:23:31.060Z,22.18
2022-10-18T03:31:04.585Z,22.15
2022-10-18T03:38:37.209Z,22.14
2022-10-18T03:46:14.828Z,22.11
2022-10-18T03:54:01.671Z,22.1
2022-10-18T04:01:29.612Z,22.1
2022-10-18T04:09:02.306Z,22.08
2022-10-18T04:17:03.084Z,22.05
2022-10-18T04:24:33.631Z,22.06
2022-10-18T04:32:04.230Z,22.12
2022-10-18T04:39:43.037Z,22.12
2022-10-18T04:47:16.612Z,22.11
2022-10-18T04:54:54.687Z,22.09
2022-10-18T05:02:34.218Z,22.1
2022-10-18T05:10:13.657Z,22.16
2022-10-18T05:17:52.866Z,22.14
2022-10-18T05:25:31.530Z,22.13
2022-10-18T05:33:09.722Z,22.14
2022-10-18T05:40:35.841Z,22.17
2022-10-18T05:48:16.612Z,22.17
2022-10-18T05:55:51.067Z,22.2
2022-10-18T06:03:39.111Z,22.27
2022-10-18T06:11:24.347Z,22.29
2022-10-18T06:18:59.178Z,22.34
2022-10-18T06:26:41.688Z,22.28
2022-10-18T06:34:04.118Z,22.41
2022-10-18T06:41:19.319Z,22.46
2022-10-18T06:48:47.158Z,22.34
2022-10-18T06:56:17.789Z,22.39
2022-10-18T07:03:48.407Z,22.34
2022-10-18T07:11:27.604Z,22.38
2022-10-18T07:18:42.697Z,22.45
2022-10-18T07:26:03.889Z,22.47
2022-10-18T07:33:07.201Z,22.51
2022-10-18T07:39:43.914Z,22.63
2022-10-18T07:46:27.074Z,22.73
2022-10-18T07:53:02.977Z,22.73
2022-10-18T07:59:46.060Z,22.83
2022-10-18T08:06:35.964Z,22.88
2022-10-18T08:13:22.895Z,22.85
2022-10-18T08:20:12.539Z,22.85
2022-10-18T08:27:04.110Z,22.85
2022-10-18T08:33:43.473Z,22.78
2022-10-18T08:40:36.641Z,22.79
2022-10-18T08:47:38.968Z,22.8
2022-10-18T08:54:41.465Z,22.8
2022-10-18T09:01:55.235Z,22.87
2022-10-18T09:08:54.017Z,22.8
2022-10-18T09:16:10.469Z,22.81
2022-10-18T09:23:32.432Z,22.83
2022-10-18T09:30:32.659Z,22.82
2022-10-18T09:37:31.425Z,22.82
2022-10-18T09:44:24.269Z,22.84
2022-10-18T09:51:27.169Z,22.93
2022-10-18T09:58:36.173Z,22.91
2022-10-18T10:05:28.127Z,22.96
2022-10-18T10:12:21.103Z,22.97
2022-10-18T10:19:29.345Z,22.97
2022-10-18T10:26:49.065Z,23.03
2022-10-18T10:33:40.148Z,22.99
2022-10-18T10:40:39.019Z,22.99
2022-10-18T10:47:36.063Z,23.02
2022-10-18T10:54:21.190Z,22.99
2022-10-18T11:01:04.964Z,22.98
2022-10-18T11:08:14.053Z,22.93
2022-10-18T11:15:13.908Z,22.96
2022-10-18T11:22:10.398Z,22.93
2022-10-18T11:29:21.039Z,22.9
2022-10-18T11:36:17.149Z,22.91
2022-10-18T11:43:30.179Z,22.93
2022-10-18T11:50:51.144Z,22.96
2022-10-18T11:58:11.633Z,22.93
2022-10-18T12:05:23.404Z,22.92
2022-10-18T12:12:21.917Z,22.95
2022-10-18T12:19:30.977Z,22.99
2022-10-18T12:26:20.259Z,22.91
2022-10-18T12:33:27.583Z,22.92
2022-10-18T12:40:36.409Z,22.94
2022-10-18T12:47:32.831Z,22.93
2022-10-18T12:54:29.246Z,22.95
2022-10-18T13:01:31.551Z,22.97
2022-10-18T13:08:19.198Z,22.93
2022-10-18T13:15:35.750Z,22.91
2022-10-18T13:22:44.268Z,22.91
2022-10-18T13:30:01.220Z,22.98
2022-10-18T13:37:04.286Z,22.94
2022-10-18T13:44:10.118Z,22.98
2022-10-18T13:51:26.031Z,22.98
2022-10-18T13:58:44.517Z,23.04
2022-10-18T14:06:25.682Z,23.11
2022-10-18T14:13:48.752Z,23.08
2022-10-18T14:21:18.803Z,23.14
2022-10-18T14:28:59.827Z,23.15
2022-10-18T14:35:56.296Z,23.17
2022-10-18T14:43:11.773Z,23.08
2022-10-18T14:50:19.721Z,23.07
2022-10-18T14:57:29.198Z,22.99
2022-10-18T15:04:27.670Z,23.1
2022-10-18T15:11:34.187Z,22.94
2022-10-18T15:19:00.341Z,22.81
2022-10-18T15:26:33.247Z,22.79
2022-10-18T15:33:47.893Z,22.89
2022-10-18T15:41:24.603Z,22.7
2022-10-18T15:48:27.243Z,22.91
2022-10-18T15:55:37.210Z,22.96
2022-10-18T16:02:50.750Z,23
2022-10-18T16:10:04.356Z,22.85
2022-10-18T16:17:19.197Z,22.69
2022-10-18T16:24:50.261Z,22.66
2022-10-18T16:32:24.083Z,22.66
2022-10-18T16:39:53.554Z,22.58
2022-10-18T16:46:56.229Z,22.64
2022-10-18T16:54:07.539Z,22.61
2022-10-18T17:01:20.931Z,22.56
2022-10-18T17:08:21.749Z,22.64
2022-10-18T17:15:18.753Z,22.74
2022-10-18T17:22:26.467Z,22.7
2022-10-18T17:29:41.731Z,22.72
2022-10-18T17:36:43.178Z,22.73
2022-10-18T17:44:13.131Z,22.51
2022-10-18T17:51:20.178Z,22.66
2022-10-18T17:57:58.695Z,22.71
2022-10-18T18:05:36.600Z,22.64
2022-10-18T18:12:38.406Z,22.62
2022-10-18T18:19:39.962Z,22.67
2022-10-18T18:26:41.295Z,22.66
2022-10-18T18:33:54.191Z,22.59
2022-10-18T18:41:00.285Z,22.61
2022-10-18T18:48:00.290Z,22.72
2022-10-18T18:54:49.566Z,22.78
2022-10-18T19:02:10.304Z,22.59
2022-10-18T19:09:31.736Z,22.61
2022-10-18T19:16:15.305Z,22.73
2022-10-18T19:22:51.734Z,22.82
2022-10-18T19:29:37.712Z,22.78
2022-10-18T19:36:14.875Z,22.85
2022-10-18T19:42:54.488Z,22.83
2022-10-18T19:49:31.880Z,22.82
2022-10-18T19:56:10.389Z,22.87
2022-10-18T20:03:07.466Z,22.84
2022-10-18T20:09:54.412Z,22.89
2022-10-18T20:16:28.830Z,22.92
2022-10-18T20:23:12.994Z,22.88
2022-10-18T20:29:43.315Z,22.88
2022-10-18T20:36:12.244Z,22.9
2022-10-18T20:42:47.578Z,22.91
2022-10-18T20:49:20.277Z,22.9
2022-10-18T20:55:47.863Z,22.89
2022-10-18T21:02:17.409Z,22.91
2022-10-18T21:08:51.466Z,22.94
2022-10-18T21:15:19.516Z,22.92
2022-10-18T21:21:58.479Z,22.95
2022-10-18T21:28:28.418Z,22.95
2022-10-18T21:34:58.484Z,22.92
2022-10-18T21:41:29.506Z,22.95
2022-10-18T21:47:54.367Z,22.95
2022-10-18T21:54:33.431Z,22.94
2022-10-18T22:01:03.000Z,22.92
2022-10-18T22:07:49.300Z,22.93
2022-10-18T22:14:13.412Z,22.92
2022-10-18T22:20:53.460Z,22.91
2022-10-18T22:27:25.491Z,22.93
2022-10-18T22:34:03.562Z,22.94
2022-10-18T22:40:42.248Z,22.84
2022-10-18T22:47:13.717Z,22.84
2022-10-18T22:53:38.405Z,22.82
2022-10-18T23:00:14.431Z,22.79
2022-10-18T23:06:46.474Z,22.76
2022-10-18T23:13:21.411Z,22.71
2022-10-18T23:19:53.671Z,22.71
2022-10-18T23:26:23.548Z,22.71
2022-10-18T23:33:03.540Z,22.69
2022-10-18T23:39:27.703Z,22.67
2022-10-18T23:45:54.826Z,22.68
2022-10-18T23:52:19.635Z,22.68
2022-10-18T23:58:51.884Z,22.7
